createdAt,value
2022-12-29T00:00:19.017Z,97334.69
2022-12-29T00:02:45.867Z,97333.88
2022-12-29T00:05:12.684Z,97331.88
2022-12-29T00:07:39.471Z,97324.00
2022-12-29T00:10:06.967Z,97331.66
2022-12-29T00:12:53.674Z,97322.84
2022-12-29T00:15:39.020Z,97320.66
2022-12-29T00:18:07.584Z,97316.91
2022-12-29T00:20:57.435Z,97315.84
2022-12-29T00:23:42.868Z,97315.84
2022-12-29T00:26:34.318Z,97315.03
2022-12-29T00:29:19.562Z,97304.50
2022-12-29T00:32:04.753Z,97307.56
2022-12-29T00:34:50.153Z,97309.19
2022-12-29T00:37:17.694Z,97308.38
2022-12-29T00:40:03.469Z,97307.31
2022-12-29T00:42:48.825Z,97301.56
2022-12-29T00:45:15.607Z,97296.50
2022-12-29T00:47:42.318Z,97305.69
2022-12-29T00:50:09.119Z,97299.69
2022-12-29T00:52:35.853Z,97289.22
2022-12-29T00:55:02.560Z,97294.38
2022-12-29T00:57:29.256Z,97297.81
2022-12-29T00:59:56.016Z,97293.44
2022-12-29T01:02:22.882Z,97290.75
2022-12-29T01:04:49.612Z,97300.06
2022-12-29T01:07:16.341Z,97294.16
2022-12-29T01:10:03.719Z,97291.56
2022-12-29T01:12:42.788Z,97295.91
2022-12-29T01:15:13.176Z,97303.50
2022-12-29T01:17:39.919Z,97300.78
2022-12-29T01:20:07.426Z,97306.66
2022-12-29T01:22:34.207Z,97291.50
2022-12-29T01:25:00.951Z,97302.66
2022-12-29T01:27:27.797Z,97291.59
2022-12-29T01:29:54.657Z,97287.38
2022-12-29T01:32:21.456Z,97281.13
2022-12-29T01:34:48.200Z,97275.88
2022-12-29T01:37:14.956Z,97272.94
2022-12-29T01:39:41.668Z,97270.00
2022-12-29T01:42:19.168Z,97267.47
2022-12-29T01:44:50.816Z,97258.16
2022-12-29T01:47:26.747Z,97258.06
2022-12-29T01:50:03.579Z,97265.72
2022-12-29T01:52:36.057Z,97266.28
2022-12-29T01:55:05.312Z,97263.25
2022-12-29T01:57:41.617Z,97253.59
2022-12-29T02:00:13.023Z,97249.25
2022-12-29T02:02:47.170Z,97251.13
2022-12-29T02:05:54.453Z,97244.06
2022-12-29T02:08:28.670Z,97243.47
2022-12-29T02:10:57.887Z,97240.66
2022-12-29T02:13:29.337Z,97232.44
2022-12-29T02:16:17.597Z,97220.06
2022-12-29T02:19:19.889Z,97226.91
2022-12-29T02:22:48.626Z,97231.00
2022-12-29T02:25:33.963Z,97229.00
2022-12-29T02:28:36.731Z,97221.94
2022-12-29T02:31:14.901Z,97220.78
2022-12-29T02:34:25.148Z,97222.31
2022-12-29T02:36:54.491Z,97219.34
2022-12-29T02:39:52.177Z,97225.72
2022-12-29T02:42:50.612Z,97223.00
2022-12-29T02:45:39.953Z,97220.66
2022-12-29T02:48:37.154Z,97214.78
2022-12-29T02:51:19.361Z,97214.16
2022-12-29T02:54:06.322Z,97209.94
2022-12-29T02:56:33.031Z,97212.41
2022-12-29T02:58:59.749Z,97214.66
2022-12-29T03:02:19.209Z,97207.47
2022-12-29T03:05:10.716Z,97210.28
2022-12-29T03:08:05.703Z,97205.44
2022-12-29T03:11:32.580Z,97208.03
2022-12-29T03:14:38.173Z,97203.69
2022-12-29T03:17:15.771Z,97208.53
2022-12-29T03:19:52.775Z,97200.88
2022-12-29T03:22:27.777Z,97199.22
2022-12-29T03:25:36.452Z,97205.25
2022-12-29T03:28:13.285Z,97203.34
2022-12-29T03:30:42.555Z,97202.41
2022-12-29T03:33:15.068Z,97205.13
2022-12-29T03:35:45.599Z,97201.56
2022-12-29T03:38:17.207Z,97196.63
2022-12-29T03:40:52.083Z,97193.22
2022-12-29T03:43:19.539Z,97193.31
2022-12-29T03:45:46.702Z,97189.91
2022-12-29T03:48:13.483Z,97187.09
2022-12-29T03:50:41.716Z,97188.75
2022-12-29T03:53:08.517Z,97180.97
2022-12-29T03:55:35.320Z,97192.84
2022-12-29T03:58:02.061Z,97193.56
2022-12-29T04:00:29.262Z,97197.09
2022-12-29T04:02:56.720Z,97186.97
2022-12-29T04:05:23.616Z,97182.13
2022-12-29T04:07:50.800Z,97188.25
2022-12-29T04:10:17.582Z,97181.66
2022-12-29T04:12:47.334Z,97191.34
2022-12-29T04:15:14.467Z,97186.59
2022-12-29T04:17:41.257Z,97185.09
2022-12-29T04:20:27.693Z,97187.91
2022-12-29T04:23:07.356Z,97187.09
2022-12-29T04:25:34.946Z,97181.34
2022-12-29T04:28:02.113Z,97187.56
2022-12-29T04:30:29.029Z,97186.84
2022-12-29T04:32:55.728Z,97187.66
2022-12-29T04:35:22.459Z,97186.97
2022-12-29T04:37:49.224Z,97187.78
2022-12-29T04:40:16.172Z,97188.50
2022-12-29T04:42:43.532Z,97190.16
2022-12-29T04:45:10.965Z,97182.38
2022-12-29T04:47:37.834Z,97187.44
2022-12-29T04:50:05.655Z,97177.78
2022-12-29T04:52:32.472Z,97187.09
2022-12-29T04:54:59.229Z,97174.97
2022-12-29T04:57:26.157Z,97180.03
2022-12-29T04:59:52.909Z,97175.53
2022-12-29T05:02:19.951Z,97171.06
2022-12-29T05:04:47.247Z,97168.47
2022-12-29T05:07:14.309Z,97162.94
2022-12-29T05:09:41.381Z,97166.47
2022-12-29T05:12:09.070Z,97163.41
2022-12-29T05:14:35.796Z,97165.78
2022-12-29T05:17:02.555Z,97175.41
2022-12-29T05:19:29.407Z,97177.56
2022-12-29T05:21:56.247Z,97176.38
2022-12-29T05:24:22.979Z,97188.97
2022-12-29T05:26:49.702Z,97189.44
2022-12-29T05:29:16.526Z,97187.44
2022-12-29T05:31:44.980Z,97171.63
2022-12-29T05:34:15.176Z,97181.28
2022-12-29T05:36:42.139Z,97175.28
2022-12-29T05:39:08.912Z,97173.41
2022-12-29T05:41:36.180Z,97172.56
2022-12-29T05:44:03.096Z,97170.69
2022-12-29T05:46:30.037Z,97167.63
2022-12-29T05:48:56.826Z,97171.44
2022-12-29T05:51:23.580Z,97165.88
2022-12-29T05:53:50.327Z,97171.78
2022-12-29T05:56:17.249Z,97177.56
2022-12-29T05:58:44.467Z,97169.41
2022-12-29T06:01:11.199Z,97177.53
2022-12-29T06:03:39.788Z,97180.25
2022-12-29T06:06:10.807Z,97187.44
2022-12-29T06:08:37.537Z,97190.84
2022-12-29T06:11:04.486Z,97182.97
2022-12-29T06:13:31.294Z,97192.75
2022-12-29T06:15:58.229Z,97194.50
2022-12-29T06:18:25.032Z,97192.13
2022-12-29T06:20:51.877Z,97185.44
2022-12-29T06:23:19.539Z,97178.00
2022-12-29T06:25:49.369Z,97188.78
2022-12-29T06:28:16.174Z,97184.19
2022-12-29T06:30:48.885Z,97181.25
2022-12-29T06:33:16.430Z,97196.31
2022-12-29T06:35:46.924Z,97203.72
2022-12-29T06:38:13.943Z,97184.41
2022-12-29T06:40:42.137Z,97186.38
2022-12-29T06:43:08.901Z,97196.25
2022-12-29T06:45:35.660Z,97185.22
2022-12-29T06:48:02.575Z,97193.91
2022-12-29T06:50:29.338Z,97190.63
2022-12-29T06:52:56.027Z,97192.25
2022-12-29T06:55:23.267Z,97181.22
2022-12-29T06:57:49.987Z,97180.47
2022-12-29T07:00:22.533Z,97185.19
2022-12-29T07:02:49.883Z,97185.28
2022-12-29T07:05:16.705Z,97187.16
2022-12-29T07:07:43.867Z,97189.88
2022-12-29T07:10:11.210Z,97178.91
2022-12-29T07:12:37.930Z,97196.31
2022-12-29T07:15:05.099Z,97191.84
2022-12-29T07:17:31.804Z,97201.47
2022-12-29T07:19:58.549Z,97198.78
2022-12-29T07:22:25.319Z,97205.47
2022-12-29T07:24:52.079Z,97207.25
2022-12-29T07:27:18.870Z,97207.25
2022-12-29T07:29:45.582Z,97213.97
2022-12-29T07:32:12.453Z,97220.81
2022-12-29T07:34:40.573Z,97218.09
2022-12-29T07:37:07.528Z,97219.53
2022-12-29T07:39:34.360Z,97223.53
2022-12-29T07:42:04.806Z,97219.69
2022-12-29T07:44:32.149Z,97227.09
2022-12-29T07:46:59.375Z,97221.38
2022-12-29T07:49:27.263Z,97220.31
2022-12-29T07:51:54.086Z,97216.53
2022-12-29T07:54:20.995Z,97221.38
2022-12-29T07:56:50.779Z,97225.75
2022-12-29T07:59:17.683Z,97218.69
2022-12-29T08:01:44.507Z,97218.56
2022-12-29T08:04:11.350Z,97221.03
2022-12-29T08:06:38.709Z,97230.91
2022-12-29T08:09:12.481Z,97226.97
2022-12-29T08:11:44.268Z,97220.28
2022-12-29T08:14:11.170Z,97209.22
2022-12-29T08:16:37.982Z,97205.59
2022-12-29T08:19:05.879Z,97226.91
2022-12-29T08:21:32.684Z,97217.81
2022-12-29T08:23:59.912Z,97226.09
2022-12-29T08:26:26.677Z,97225.59
2022-12-29T08:28:55.361Z,97230.91
2022-12-29T08:31:23.343Z,97230.09
2022-12-29T08:33:50.696Z,97224.16
2022-12-29T08:36:17.746Z,97225.09
2022-12-29T08:38:44.477Z,97227.69
2022-12-29T08:41:11.230Z,97222.47
2022-12-29T08:43:37.998Z,97235.19
2022-12-29T08:46:04.941Z,97239.84
2022-12-29T08:48:31.727Z,97236.47
2022-12-29T08:50:58.484Z,97228.53
2022-12-29T08:53:25.258Z,97238.41
2022-12-29T08:56:05.208Z,97243.09
2022-12-29T08:58:33.393Z,97226.34
2022-12-29T09:01:00.646Z,97229.97
2022-12-29T09:06:17.574Z,97227.94
2022-12-29T09:08:45.075Z,97212.91
2022-12-29T09:11:22.379Z,97229.13
2022-12-29T09:13:49.560Z,97231.09
2022-12-29T09:16:23.067Z,97235.69
2022-12-29T09:18:50.265Z,97217.50
2022-12-29T09:21:17.921Z,97231.13
2022-12-29T09:23:44.748Z,97224.59
2022-12-29T09:26:11.700Z,97235.97
2022-12-29T09:28:38.549Z,97234.66
2022-12-29T09:31:05.659Z,97233.88
2022-12-29T09:33:34.992Z,97227.56
2022-12-29T09:36:03.545Z,97236.47
2022-12-29T09:38:30.740Z,97240.78
2022-12-29T09:41:28.771Z,97238.91
2022-12-29T09:44:08.376Z,97242.72
2022-12-29T09:46:51.799Z,97228.75
2022-12-29T09:49:46.913Z,97227.00
2022-12-29T09:52:21.707Z,97223.00
2022-12-29T09:55:02.881Z,97229.03
2022-12-29T09:57:46.335Z,97215.88
2022-12-29T10:00:18.733Z,97219.44
2022-12-29T10:02:59.802Z,97210.69
2022-12-29T10:05:58.404Z,97212.72
2022-12-29T10:08:44.014Z,97216.19
2022-12-29T10:11:57.515Z,97214.25
2022-12-29T10:15:03.807Z,97213.31
2022-12-29T10:18:01.429Z,97204.53
2022-12-29T10:20:44.660Z,97205.78
2022-12-29T10:23:36.499Z,97202.72
2022-12-29T10:26:05.271Z,97198.06
2022-12-29T10:28:49.660Z,97200.00
2022-12-29T10:31:37.228Z,97197.25
2022-12-29T10:34:23.553Z,97189.44
2022-12-29T10:36:59.267Z,97186.56
2022-12-29T10:39:34.971Z,97189.84
2022-12-29T10:42:15.153Z,97184.41
2022-12-29T10:44:42.585Z,97185.91
2022-12-29T10:47:24.058Z,97188.78
2022-12-29T10:49:51.367Z,97176.31
2022-12-29T10:52:21.916Z,97169.84
2022-12-29T10:55:09.278Z,97171.78
2022-12-29T10:57:46.876Z,97166.44
2022-12-29T11:00:22.659Z,97162.75
2022-12-29T11:03:20.685Z,97170.69
2022-12-29T11:06:16.736Z,97159.47
2022-12-29T11:08:56.393Z,97165.13
2022-12-29T11:11:28.335Z,97162.13
2022-12-29T11:14:04.262Z,97160.59
2022-12-29T11:16:35.719Z,97159.50
2022-12-29T11:19:03.724Z,97155.13
2022-12-29T11:21:42.731Z,97158.16
2022-12-29T11:24:29.658Z,97161.97
2022-12-29T11:27:26.071Z,97171.00
2022-12-29T11:29:54.828Z,97164.66
2022-12-29T11:32:29.358Z,97170.25
2022-12-29T11:35:01.870Z,97174.78
2022-12-29T11:37:39.952Z,97165.97
2022-12-29T11:40:21.040Z,97170.91
2022-12-29T11:42:59.066Z,97171.19
2022-12-29T11:45:30.112Z,97163.91
2022-12-29T11:48:16.054Z,97152.88
2022-12-29T11:50:51.998Z,97155.75
2022-12-29T11:53:27.365Z,97155.16
2022-12-29T11:56:05.769Z,97145.31
2022-12-29T11:58:37.398Z,97156.38
2022-12-29T12:01:25.048Z,97149.13
2022-12-29T12:04:08.962Z,97143.53
2022-12-29T12:06:48.915Z,97142.91
2022-12-29T12:09:39.811Z,97135.19
2022-12-29T12:12:10.635Z,97133.25
2022-12-29T12:15:00.329Z,97144.81
2022-12-29T12:17:55.879Z,97145.50
2022-12-29T12:20:45.155Z,97136.97
2022-12-29T12:23:43.162Z,97145.69
2022-12-29T12:26:20.003Z,97129.00
2022-12-29T12:29:00.329Z,97137.75
2022-12-29T12:31:44.077Z,97157.84
2022-12-29T12:34:28.614Z,97137.75
2022-12-29T12:37:38.651Z,97145.28
2022-12-29T12:40:42.877Z,97138.50
2022-12-29T12:43:26.979Z,97128.94
2022-12-29T12:46:17.798Z,97127.69
2022-12-29T12:48:59.161Z,97127.59
2022-12-29T12:51:51.859Z,97139.28
2022-12-29T12:54:54.330Z,97140.03
2022-12-29T12:57:49.757Z,97145.28
2022-12-29T13:00:20.137Z,97147.66
2022-12-29T13:03:14.188Z,97140.31
2022-12-29T13:06:12.458Z,97141.69
2022-12-29T13:09:24.542Z,97135.91
2022-12-29T13:12:38.424Z,97139.66
2022-12-29T13:15:37.563Z,97150.13
2022-12-29T13:18:42.937Z,97152.28
2022-12-29T13:21:50.120Z,97146.16
2022-12-29T13:24:50.098Z,97148.81
2022-12-29T13:27:45.457Z,97138.22
2022-12-29T13:30:27.383Z,97134.72
2022-12-29T13:33:21.091Z,97141.47
2022-12-29T13:36:04.590Z,97152.47
2022-12-29T13:38:40.851Z,97154.00
2022-12-29T13:41:20.570Z,97157.34
2022-12-29T13:43:51.407Z,97156.63
2022-12-29T13:46:34.304Z,97134.97
2022-12-29T13:49:09.490Z,97148.94
2022-12-29T13:51:41.087Z,97145.34
2022-12-29T13:54:31.885Z,97155.66
2022-12-29T13:57:40.711Z,97154.41
2022-12-29T14:00:20.175Z,97158.81
2022-12-29T14:02:46.996Z,97163.47
2022-12-29T14:05:22.750Z,97172.41
2022-12-29T14:08:00.556Z,97176.13
2022-12-29T14:10:38.843Z,97175.59
2022-12-29T14:13:17.068Z,97184.09
2022-12-29T14:15:51.097Z,97181.03
2022-12-29T14:18:26.204Z,97184.78
2022-12-29T14:21:12.541Z,97174.25
2022-12-29T14:23:43.905Z,97176.59
2022-12-29T14:26:35.918Z,97179.47
2022-12-29T14:29:24.145Z,97186.88
2022-12-29T14:31:54.880Z,97180.84
2022-12-29T14:34:21.596Z,97172.25
2022-12-29T14:36:58.383Z,97162.50
2022-12-29T14:39:45.971Z,97159.50
2022-12-29T14:42:23.387Z,97165.13
2022-12-29T14:44:59.928Z,97161.97
2022-12-29T14:47:38.552Z,97170.22
2022-12-29T14:50:17.036Z,97172.38
2022-12-29T14:53:05.921Z,97165.69
2022-12-29T14:55:55.005Z,97164.47
2022-12-29T14:58:51.318Z,97172.66
2022-12-29T15:01:45.850Z,97169.53
2022-12-29T15:04:33.049Z,97177.34
2022-12-29T15:07:04.241Z,97176.66
2022-12-29T15:09:44.665Z,97167.88
2022-12-29T15:12:20.162Z,97171.59
2022-12-29T15:14:56.752Z,97169.94
2022-12-29T15:17:33.768Z,97193.22
2022-12-29T15:20:18.038Z,97176.22
2022-12-29T15:22:47.202Z,97173.91
2022-12-29T15:25:18.377Z,97176.75
2022-12-29T15:27:53.472Z,97191.44
2022-12-29T15:30:20.961Z,97187.97
2022-12-29T15:32:50.391Z,97195.09
2022-12-29T15:35:25.172Z,97194.28
2022-12-29T15:37:51.926Z,97191.25
2022-12-29T15:40:33.409Z,97188.91
2022-12-29T15:43:29.402Z,97186.19
2022-12-29T15:45:56.246Z,97178.09
2022-12-29T15:48:26.026Z,97191.50
2022-12-29T15:50:53.320Z,97172.88
2022-12-29T15:53:32.032Z,97180.81
2022-12-29T15:56:07.427Z,97177.91
2022-12-29T15:58:47.409Z,97184.50
2022-12-29T16:01:40.649Z,97180.75
2022-12-29T16:04:09.870Z,97188.69
2022-12-29T16:06:44.614Z,97186.22
2022-12-29T16:09:29.459Z,97184.59
2022-12-29T16:12:05.400Z,97182.69
2022-12-29T16:14:49.326Z,97183.63
2022-12-29T16:17:27.715Z,97179.38
2022-12-29T16:20:06.530Z,97185.41
2022-12-29T16:22:44.659Z,97179.94
2022-12-29T16:25:26.139Z,97184.50
2022-12-29T16:27:54.062Z,97192.44
2022-12-29T16:30:33.111Z,97193.53
2022-12-29T16:33:04.799Z,97202.84
2022-12-29T16:35:49.370Z,97205.72
2022-12-29T16:38:23.621Z,97211.47
2022-12-29T16:40:58.513Z,97219.13
2022-12-29T16:43:25.203Z,97215.03
2022-12-29T16:45:52.072Z,97218.03
2022-12-29T16:48:24.351Z,97215.72
2022-12-29T16:50:51.523Z,97215.16
2022-12-29T16:53:39.503Z,97211.75
2022-12-29T16:56:32.884Z,97208.56
2022-12-29T16:59:20.049Z,97208.69
2022-12-29T17:01:47.344Z,97210.59
2022-12-29T17:04:15.239Z,97209.91
2022-12-29T17:06:42.276Z,97208.28
2022-12-29T17:09:27.820Z,97207.59
2022-12-29T17:12:05.295Z,97206.78
2022-12-29T17:14:56.259Z,97210.31
2022-12-29T17:17:53.450Z,97218.13
2022-12-29T17:20:35.860Z,97214.81
2022-12-29T17:23:19.740Z,97209.75
2022-12-29T17:25:51.592Z,97222.88
2022-12-29T17:28:32.664Z,97221.25
2022-12-29T17:31:05.822Z,97227.25
2022-12-29T17:33:42.264Z,97236.03
2022-12-29T17:36:11.164Z,97230.94
2022-12-29T17:38:38.225Z,97239.59
2022-12-29T17:41:08.957Z,97253.53
2022-12-29T17:43:37.212Z,97296.78
2022-12-29T17:46:08.070Z,97311.72
2022-12-29T17:48:35.332Z,97316.97
2022-12-29T17:51:02.123Z,97325.25
2022-12-29T17:53:31.139Z,97307.38
2022-12-29T17:55:58.064Z,97309.88
2022-12-29T17:58:31.475Z,97307.81
2022-12-29T18:01:02.170Z,97293.66
2022-12-29T18:03:41.096Z,97296.63
2022-12-29T18:06:11.522Z,97297.13
2022-12-29T18:08:40.796Z,97289.72
2022-12-29T18:11:23.083Z,97288.19
2022-12-29T18:13:50.241Z,97296.22
2022-12-29T18:16:19.203Z,97294.00
2022-12-29T18:18:45.983Z,97278.91
2022-12-29T18:21:20.432Z,97286.91
2022-12-29T18:23:48.905Z,97289.06
2022-12-29T18:26:28.050Z,97296.41
2022-12-29T18:28:57.044Z,97298.53
2022-12-29T18:31:36.454Z,97288.53
2022-12-29T18:34:13.846Z,97300.22
2022-12-29T18:36:40.653Z,97299.63
2022-12-29T18:39:07.396Z,97306.47
2022-12-29T18:41:34.342Z,97307.41
2022-12-29T18:44:01.193Z,97299.75
2022-12-29T18:46:28.477Z,97300.47
2022-12-29T18:48:55.598Z,97310.72
2022-12-29T18:51:25.333Z,97316.84
2022-12-29T18:53:55.266Z,97312.03
2022-12-29T18:56:23.727Z,97319.13
2022-12-29T18:58:50.813Z,97311.56
2022-12-29T19:01:22.692Z,97313.56
2022-12-29T19:03:49.976Z,97303.31
2022-12-29T19:06:17.147Z,97308.50
2022-12-29T19:08:43.931Z,97322.69
2022-12-29T19:11:10.694Z,97323.84
2022-12-29T19:13:37.891Z,97327.63
2022-12-29T19:16:04.940Z,97326.94
2022-12-29T19:19:00.896Z,97331.19
2022-12-29T19:21:20.066Z,97326.94
2022-12-29T19:23:47.059Z,97327.88
2022-12-29T19:26:34.550Z,97329.66
2022-12-29T19:29:02.561Z,97331.53
2022-12-29T19:31:29.479Z,97336.47
2022-12-29T19:33:56.337Z,97325.28
2022-12-29T19:36:23.333Z,97330.47
2022-12-29T19:38:50.066Z,97330.34
2022-12-29T19:41:16.874Z,97335.66
2022-12-29T19:43:44.114Z,97332.13
2022-12-29T19:46:17.428Z,97335.41
2022-12-29T19:48:44.221Z,97337.19
2022-12-29T19:51:16.907Z,97339.78
2022-12-29T19:53:47.086Z,97329.41
2022-12-29T19:56:14.537Z,97339.91
2022-12-29T19:58:47.008Z,97341.69
2022-12-29T20:01:20.515Z,97342.50
2022-12-29T20:03:50.071Z,97336.47
2022-12-29T20:06:18.128Z,97338.25
2022-12-29T20:08:44.936Z,97333.19
2022-12-29T20:11:18.555Z,97342.97
2022-12-29T20:13:46.787Z,97334.72
2022-12-29T20:16:17.990Z,97336.84
2022-12-29T20:18:45.298Z,97340.41
2022-12-29T20:21:20.026Z,97331.88
2022-12-29T20:23:48.775Z,97335.41
2022-12-29T20:26:23.854Z,97344.84
2022-12-29T20:28:51.963Z,97352.63
2022-12-29T20:31:27.113Z,97355.34
2022-12-29T20:33:54.118Z,97340.97
2022-12-29T20:36:25.975Z,97345.34
2022-12-29T20:38:56.368Z,97339.44
2022-12-29T20:41:23.379Z,97330.13
2022-12-29T20:43:52.996Z,97334.50
2022-12-29T20:46:23.194Z,97318.22
2022-12-29T20:48:52.580Z,97325.28
2022-12-29T20:51:20.985Z,97329.78
2022-12-29T20:53:48.828Z,97336.84
2022-12-29T20:56:22.505Z,97339.44
2022-12-29T21:01:38.221Z,97327.53
2022-12-29T21:04:05.795Z,97332.84
2022-12-29T21:06:33.341Z,97337.31
2022-12-29T21:09:00.269Z,97330.47
2022-12-29T21:11:28.114Z,97334.81
2022-12-29T21:13:56.370Z,97337.53
2022-12-29T21:16:26.100Z,97350.63
2022-12-29T21:18:53.127Z,97348.97
2022-12-29T21:21:23.735Z,97354.97
2022-12-29T21:23:53.114Z,97354.38
2022-12-29T21:26:23.838Z,97363.00
2022-12-29T21:28:51.546Z,97356.97
2022-12-29T21:31:30.613Z,97364.19
2022-12-29T21:33:58.039Z,97371.22
2022-12-29T21:36:25.592Z,97369.69
2022-12-29T21:38:52.806Z,97367.31
2022-12-29T21:41:20.992Z,97367.56
2022-12-29T21:44:07.080Z,97375.22
2022-12-29T21:46:36.740Z,97382.28
2022-12-29T21:49:05.390Z,97379.09
2022-12-29T21:51:51.258Z,97394.44
2022-12-29T21:54:48.593Z,97399.50
2022-12-29T21:57:37.250Z,97407.16
2022-12-29T22:00:26.890Z,97396.19
2022-12-29T22:03:18.623Z,97394.75
2022-12-29T22:06:08.173Z,97394.75
2022-12-29T22:08:53.457Z,97393.91
2022-12-29T22:11:38.718Z,97402.53
2022-12-29T22:14:06.341Z,97411.34
2022-12-29T22:16:33.286Z,97402.88
2022-12-29T22:19:00.035Z,97404.63
2022-12-29T22:21:27.040Z,97411.59
2022-12-29T22:23:53.809Z,97415.94
2022-12-29T22:26:20.591Z,97415.25
2022-12-29T22:28:48.084Z,97415.34
2022-12-29T22:31:30.114Z,97416.25
2022-12-29T22:33:59.931Z,97431.94
2022-12-29T22:36:27.709Z,97415.34
2022-12-29T22:38:54.847Z,97401.00
2022-12-29T22:41:22.303Z,97412.41
2022-12-29T22:43:49.183Z,97419.72
2022-12-29T22:46:15.977Z,97430.16
2022-12-29T22:48:42.721Z,97415.56
2022-12-29T22:51:09.493Z,97416.63
2022-12-29T22:53:36.223Z,97413.78
2022-12-29T22:56:12.593Z,97408.59
2022-12-29T22:58:41.710Z,97398.56
2022-12-29T23:01:11.160Z,97407.38
2022-12-29T23:03:38.323Z,97420.56
2022-12-29T23:06:07.682Z,97424.09
2022-12-29T23:08:38.087Z,97424.09
2022-12-29T23:11:08.596Z,97411.13
2022-12-29T23:13:35.661Z,97436.09
2022-12-29T23:16:02.621Z,97455.16
2022-12-29T23:18:29.691Z,97456.41
2022-12-29T23:20:56.487Z,97451.34
2022-12-29T23:23:48.492Z,97459.13
2022-12-29T23:26:18.300Z,97456.66
2022-12-29T23:28:45.153Z,97445.56
2022-12-29T23:31:12.284Z,97425.78
2022-12-29T23:33:42.274Z,97456.03
2022-12-29T23:36:10.027Z,97459.56
2022-12-29T23:38:36.768Z,97464.63
2022-12-29T23:41:03.661Z,97461.13
2022-12-29T23:43:30.387Z,97466.41
2022-12-29T23:45:57.178Z,97472.41
2022-12-29T23:48:23.919Z,97467.13
2022-12-29T23:50:50.890Z,97478.63
2022-12-29T23:53:17.913Z,97488.22
2022-12-29T23:55:44.795Z,97484.91
2022-12-29T23:58:11.655Z,97500.69
